Time;durP1;ratioP1;P1;durP2;ratioP2;P2;SDS_P1;SDS_P2;PMS_P1;PMS_P2;Temp;Humidity;BMP_temperature;BMP_pressure;BME280_temperature;BME280_humidity;BME280_pressure;Samples;Min_cycle;Max_cycle;Signal;HPM_P1;HPM_P2
2021/05/14 00:01:06;;;;;;;10.35;6.93;;;;;;;;;;5027483;28;20048;-71
2021/05/14 00:03:33;;;;;;;7.53;6.70;;;;;;;;;;5023853;28;20131;-71
2021/05/14 00:05:59;;;;;;;7.60;6.35;;;;;;;;;;5025790;28;20045;-72
2021/05/14 00:08:25;;;;;;;8.82;6.68;;;;;;;;;;5026209;28;20572;-72
2021/05/14 00:10:52;;;;;;;10.23;7.60;;;;;;;;;;5025760;28;20045;-72
2021/05/14 00:13:18;;;;;;;10.25;6.97;;;;;;;;;;5026249;28;20499;-72
2021/05/14 00:15:44;;;;;;;12.85;8.50;;;;;;;;;;5029069;28;20140;-72
2021/05/14 00:18:11;;;;;;;8.70;7.68;;;;;;;;;;5023971;28;20084;-72
2021/05/14 00:20:37;;;;;;;10.27;8.68;;;;;;;;;;5025446;28;20041;-72
2021/05/14 00:23:05;;;;;;;10.63;8.93;;;;;;;;;;5026744;28;20065;-71
2021/05/14 00:25:31;;;;;;;11.60;9.40;;;;;;;;;;5024602;28;20095;-72
2021/05/14 00:27:57;;;;;;;11.63;10.13;;;;;;;;;;5027332;28;20065;-72
2021/05/14 00:30:24;;;;;;;13.73;10.88;;;;;;;;;;5007822;28;20061;-72
2021/05/14 00:32:50;;;;;;;16.15;10.30;;;;;;;;;;5025831;28;20041;-72
2021/05/14 00:35:17;;;;;;;9.93;8.70;;;;;;;;;;5025563;28;20037;-72
2021/05/14 00:37:43;;;;;;;10.05;8.85;;;;;;;;;;5010086;28;20457;-72
2021/05/14 00:40:10;;;;;;;12.70;9.35;;;;;;;;;;5024919;28;20475;-72
2021/05/14 00:42:36;;;;;;;11.82;8.90;;;;;;;;;;5019544;28;20080;-72
2021/05/14 00:45:03;;;;;;;11.05;9.13;;;;;;;;;;5020606;28;20041;-72
2021/05/14 00:47:29;;;;;;;12.02;8.18;;;;;;;;;;4997676;28;20595;-71
2021/05/14 00:49:56;;;;;;;11.60;7.50;;;;;;;;;;5018876;28;20450;-72
2021/05/14 00:52:22;;;;;;;10.43;7.13;;;;;;;;;;5021404;28;20477;-72
2021/05/14 00:54:49;;;;;;;10.82;6.50;;;;;;;;;;5005237;28;20049;-72
2021/05/14 00:57:16;;;;;;;9.80;7.03;;;;;;;;;;5025545;28;20049;-72
2021/05/14 00:59:44;;;;;;;11.75;6.78;;;;;;;;;;5022470;28;20044;-72
2021/05/14 01:02:10;;;;;;;12.35;6.95;;;;;;;;;;5024190;28;20042;-72
2021/05/14 01:04:37;;;;;;;8.50;6.30;;;;;;;;;;5011046;28;20126;-71
2021/05/14 01:07:04;;;;;;;9.80;7.20;;;;;;;;;;5003550;28;20072;-71
2021/05/14 01:09:32;;;;;;;9.50;6.93;;;;;;;;;;5019023;28;20057;-72
2021/05/14 01:11:58;;;;;;;9.23;6.20;;;;;;;;;;5023208;28;20608;-72
2021/05/14 01:14:24;;;;;;;8.75;6.22;;;;;;;;;;5024646;28;20097;-72
2021/05/14 01:16:51;;;;;;;9.23;6.65;;;;;;;;;;5026256;28;20120;-72
2021/05/14 01:19:17;;;;;;;11.32;7.80;;;;;;;;;;5021596;28;20053;-72
2021/05/14 01:21:44;;;;;;;10.80;7.50;;;;;;;;;;5022829;28;20095;-72
2021/05/14 01:24:11;;;;;;;12.90;8.43;;;;;;;;;;5025329;28;20045;-72
2021/05/14 01:26:37;;;;;;;10.52;7.25;;;;;;;;;;5024895;28;20041;-72
2021/05/14 01:29:07;;;;;;;11.82;7.72;;;;;;;;;;5023182;28;20105;-71
2021/05/14 01:31:33;;;;;;;13.25;7.70;;;;;;;;;;5026031;28;20037;-72
2021/05/14 01:34:00;;;;;;;12.68;8.38;;;;;;;;;;5021867;28;20042;-72
2021/05/14 01:36:27;;;;;;;12.27;8.85;;;;;;;;;;5025757;28;20033;-72
2021/05/14 01:38:53;;;;;;;16.73;9.55;;;;;;;;;;5009379;28;20046;-72
2021/05/14 01:41:19;;;;;;;13.43;9.23;;;;;;;;;;5018106;28;20137;-72
2021/05/14 01:43:45;;;;;;;14.55;9.88;;;;;;;;;;5022395;28;20106;-72
2021/05/14 01:46:11;;;;;;;12.32;9.05;;;;;;;;;;5022497;28;20081;-72
2021/05/14 01:48:38;;;;;;;10.40;8.43;;;;;;;;;;5024793;28;20042;-72
2021/05/14 01:51:09;;;;;;;12.05;8.18;;;;;;;;;;5025614;28;20067;-72
2021/05/14 01:53:35;;;;;;;9.10;7.57;;;;;;;;;;5025660;28;20099;-72
2021/05/14 01:56:02;;;;;;;12.50;8.13;;;;;;;;;;5023272;28;20095;-71
2021/05/14 01:58:28;;;;;;;11.45;8.25;;;;;;;;;;5009627;28;20068;-72
2021/05/14 02:00:54;;;;;;;10.27;7.85;;;;;;;;;;5025620;28;20037;-72
2021/05/14 02:03:21;;;;;;;11.05;8.23;;;;;;;;;;5022181;28;20045;-71
2021/05/14 02:05:47;;;;;;;9.23;5.80;;;;;;;;;;5026311;28;20045;-72
2021/05/14 02:08:13;;;;;;;10.20;7.00;;;;;;;;;;5023825;28;20045;-72
2021/05/14 02:10:40;;;;;;;9.35;6.50;;;;;;;;;;5023038;28;20052;-72
2021/05/14 02:13:06;;;;;;;11.10;7.97;;;;;;;;;;5024593;28;20088;-72
2021/05/14 02:15:32;;;;;;;13.30;7.47;;;;;;;;;;5021499;28;20037;-72
2021/05/14 02:17:59;;;;;;;10.07;6.53;;;;;;;;;;5024658;28;20084;-72
2021/05/14 02:20:26;;;;;;;11.27;7.00;;;;;;;;;;5021777;28;20499;-72
2021/05/14 02:22:52;;;;;;;11.80;7.20;;;;;;;;;;5024864;28;20076;-72
2021/05/14 02:25:19;;;;;;;15.60;7.50;;;;;;;;;;5024032;28;20358;-72
2021/05/14 02:27:45;;;;;;;11.65;8.00;;;;;;;;;;5026111;28;20071;-71
2021/05/14 02:30:12;;;;;;;14.05;8.15;;;;;;;;;;5024079;28;20080;-71
2021/05/14 02:32:38;;;;;;;13.13;6.85;;;;;;;;;;5024180;28;20049;-72
2021/05/14 02:35:05;;;;;;;15.30;7.50;;;;;;;;;;5024534;28;20123;-72
2021/05/14 02:37:31;;;;;;;13.13;7.15;;;;;;;;;;5020884;28;20038;-72
2021/05/14 02:39:57;;;;;;;13.35;7.05;;;;;;;;;;5007970;28;20046;-72
2021/05/14 02:42:24;;;;;;;13.60;7.93;;;;;;;;;;5020160;28;20144;-72
2021/05/14 02:44:50;;;;;;;15.25;8.13;;;;;;;;;;5022378;28;20038;-72
2021/05/14 02:47:16;;;;;;;12.43;7.65;;;;;;;;;;5007032;28;20034;-72
2021/05/14 02:49:43;;;;;;;17.40;6.97;;;;;;;;;;5018452;28;20060;-71
2021/05/14 02:52:09;;;;;;;15.65;7.75;;;;;;;;;;5004087;28;20160;-71
2021/05/14 02:54:36;;;;;;;16.30;7.65;;;;;;;;;;5002049;28;20136;-72
2021/05/14 02:57:03;;;;;;;13.50;8.45;;;;;;;;;;5013167;28;20523;-71
2021/05/14 02:59:30;;;;;;;17.80;7.75;;;;;;;;;;5004335;28;20695;-71
2021/05/14 03:01:56;;;;;;;14.52;8.18;;;;;;;;;;5013878;28;20125;-72
2021/05/14 03:04:23;;;;;;;12.90;8.05;;;;;;;;;;5016667;28;20172;-71
2021/05/14 03:06:49;;;;;;;15.45;8.88;;;;;;;;;;5022434;28;20137;-72
2021/05/14 03:09:15;;;;;;;20.50;9.43;;;;;;;;;;5025039;28;20220;-72
2021/05/14 03:11:41;;;;;;;15.98;7.63;;;;;;;;;;5022820;28;20042;-71
2021/05/14 03:14:08;;;;;;;12.82;7.35;;;;;;;;;;5024013;28;20493;-71
2021/05/14 03:16:35;;;;;;;16.80;7.55;;;;;;;;;;5024706;28;20400;-72
2021/05/14 03:19:01;;;;;;;15.60;7.35;;;;;;;;;;5025765;28;20120;-72
2021/05/14 03:21:30;;;;;;;14.38;6.53;;;;;;;;;;5005063;28;20045;-72
2021/05/14 03:23:56;;;;;;;15.73;6.47;;;;;;;;;;5004809;28;20065;-71
2021/05/14 03:26:23;;;;;;;11.80;5.22;;;;;;;;;;5024030;28;20107;-72
2021/05/14 03:28:49;;;;;;;12.60;5.75;;;;;;;;;;5023497;28;20125;-72
2021/05/14 03:31:15;;;;;;;15.90;6.20;;;;;;;;;;5022274;28;20056;-71
2021/05/14 03:33:42;;;;;;;15.68;6.50;;;;;;;;;;5024226;28;20462;-71
2021/05/14 03:36:08;;;;;;;14.13;5.88;;;;;;;;;;5030231;28;20152;-72
2021/05/14 03:38:35;;;;;;;11.80;5.72;;;;;;;;;;5026438;28;20144;-71
2021/05/14 03:41:04;;;;;;;12.45;5.45;;;;;;;;;;5024709;28;20045;-71
2021/05/14 03:43:30;;;;;;;12.98;5.60;;;;;;;;;;5019435;28;20101;-71
2021/05/14 03:45:56;;;;;;;12.32;6.07;;;;;;;;;;5024768;28;20370;-72
2021/05/14 03:48:23;;;;;;;11.25;4.97;;;;;;;;;;5028081;28;20065;-72
2021/05/14 03:50:52;;;;;;;9.57;5.05;;;;;;;;;;5012195;28;20041;-71
2021/05/14 03:53:19;;;;;;;12.55;4.72;;;;;;;;;;5025233;28;20461;-71
2021/05/14 03:55:46;;;;;;;13.35;4.43;;;;;;;;;;5025848;28;20067;-72
2021/05/14 03:58:12;;;;;;;19.58;5.20;;;;;;;;;;5026079;28;20081;-71
2021/05/14 04:00:40;;;;;;;12.93;5.35;;;;;;;;;;5027746;28;20467;-71
2021/05/14 04:03:07;;;;;;;21.05;7.32;;;;;;;;;;5026231;28;20207;-72
2021/05/14 04:05:38;;;;;;;15.93;6.43;;;;;;;;;;5026863;28;20045;-72
2021/05/14 04:08:05;;;;;;;18.55;6.25;;;;;;;;;;5008636;28;20073;-72
2021/05/14 04:10:47;;;;;;;18.75;7.20;;;;;;;;;;5025877;28;20076;-72
2021/05/14 04:16:02;;;;;;;12.10;5.13;;;;;;;;;;5025235;28;20076;-72
2021/05/14 04:18:28;;;;;;;14.02;4.90;;;;;;;;;;5026419;28;20116;-72
2021/05/14 04:20:54;;;;;;;22.83;4.40;;;;;;;;;;5028466;28;20592;-72
2021/05/14 04:23:20;;;;;;;14.45;4.57;;;;;;;;;;5024626;28;20045;-72
2021/05/14 04:25:47;;;;;;;16.20;4.68;;;;;;;;;;5010351;28;20045;-72
2021/05/14 04:28:13;;;;;;;13.15;3.88;;;;;;;;;;5029634;28;20370;-71
2021/05/14 04:30:39;;;;;;;15.60;4.30;;;;;;;;;;5024459;28;20049;-72
2021/05/14 04:33:06;;;;;;;12.60;4.30;;;;;;;;;;5027863;28;20041;-72
2021/05/14 04:35:33;;;;;;;11.43;4.28;;;;;;;;;;5022246;28;20120;-72
2021/05/14 04:38:00;;;;;;;15.95;5.18;;;;;;;;;;5025408;28;20041;-72
2021/05/14 04:40:26;;;;;;;15.18;5.20;;;;;;;;;;5025047;28;20123;-72
2021/05/14 04:42:52;;;;;;;17.30;4.60;;;;;;;;;;5024569;28;20187;-71
2021/05/14 04:45:19;;;;;;;16.55;5.07;;;;;;;;;;5015679;28;20145;-71
2021/05/14 04:47:46;;;;;;;14.85;4.63;;;;;;;;;;5018096;28;20386;-71
2021/05/14 04:50:16;;;;;;;17.25;6.10;;;;;;;;;;5011069;28;20049;-72
2021/05/14 04:52:43;;;;;;;18.92;5.28;;;;;;;;;;5014413;28;20143;-72
2021/05/14 04:55:10;;;;;;;17.83;5.03;;;;;;;;;;5001929;28;20072;-72
2021/05/14 04:57:36;;;;;;;14.25;5.70;;;;;;;;;;5027612;28;20041;-72
2021/05/14 05:00:05;;;;;;;14.40;4.85;;;;;;;;;;5023172;28;20678;-73
2021/05/14 05:02:32;;;;;;;18.48;5.97;;;;;;;;;;5025386;28;20053;-71
2021/05/14 05:05:00;;;;;;;20.92;6.63;;;;;;;;;;5021364;28;20037;-72
2021/05/14 05:07:30;;;;;;;17.17;5.50;;;;;;;;;;5027193;28;20037;-72
2021/05/14 05:09:56;;;;;;;15.43;5.93;;;;;;;;;;5023278;28;20047;-72
2021/05/14 05:12:22;;;;;;;14.05;4.82;;;;;;;;;;5022960;28;20132;-72
2021/05/14 05:14:49;;;;;;;13.15;4.47;;;;;;;;;;5022672;28;20353;-72
2021/05/14 05:17:25;;;;;;;13.55;5.10;;;;;;;;;;5021523;28;20057;-72
2021/05/14 05:19:52;;;;;;;14.55;4.32;;;;;;;;;;5025312;28;20038;-72
2021/05/14 05:22:19;;;;;;;10.30;4.18;;;;;;;;;;5025425;28;20045;-72
2021/05/14 05:24:45;;;;;;;12.68;4.25;;;;;;;;;;5022922;28;20088;-72
2021/05/14 05:27:13;;;;;;;12.65;4.22;;;;;;;;;;5023905;28;20589;-72
2021/05/14 05:29:39;;;;;;;14.50;4.13;;;;;;;;;;5026501;28;20051;-72
2021/05/14 05:32:06;;;;;;;16.00;4.63;;;;;;;;;;5008351;28;20048;-72
2021/05/14 05:34:32;;;;;;;16.70;4.63;;;;;;;;;;5010414;28;20049;-72
2021/05/14 05:36:59;;;;;;;13.50;5.50;;;;;;;;;;5024673;28;20064;-71
2021/05/14 05:39:25;;;;;;;13.70;5.07;;;;;;;;;;5024144;28;20063;-72
2021/05/14 05:41:51;;;;;;;16.13;5.32;;;;;;;;;;5025267;28;20038;-72
2021/05/14 05:44:18;;;;;;;15.68;6.25;;;;;;;;;;5019551;28;20054;-73
2021/05/14 05:46:44;;;;;;;16.92;5.60;;;;;;;;;;5022267;28;20482;-75
2021/05/14 05:49:10;;;;;;;17.60;5.93;;;;;;;;;;5022461;28;20045;-71
2021/05/14 05:51:37;;;;;;;12.82;5.18;;;;;;;;;;5024214;28;20220;-72
2021/05/14 05:54:03;;;;;;;17.10;5.50;;;;;;;;;;5022473;28;20076;-72
2021/05/14 05:56:32;;;;;;;20.70;6.22;;;;;;;;;;5022046;28;20049;-73
2021/05/14 05:58:58;;;;;;;17.77;6.50;;;;;;;;;;5010474;28;20052;-72
2021/05/14 06:01:24;;;;;;;12.50;5.53;;;;;;;;;;5020177;28;20042;-73
2021/05/14 06:03:51;;;;;;;12.98;5.07;;;;;;;;;;5025665;28;20397;-72
2021/05/14 06:06:17;;;;;;;15.05;6.57;;;;;;;;;;5008955;28;20057;-73
2021/05/14 06:08:44;;;;;;;17.80;7.15;;;;;;;;;;5028008;28;20596;-72
2021/05/14 06:11:10;;;;;;;17.63;4.47;;;;;;;;;;5027046;28;20071;-74
2021/05/14 06:13:37;;;;;;;14.80;4.28;;;;;;;;;;5006122;28;20052;-75
2021/05/14 06:16:03;;;;;;;14.25;4.35;;;;;;;;;;5028956;28;20057;-73
2021/05/14 06:18:37;;;;;;;11.48;4.57;;;;;;;;;;5022585;28;20042;-72
2021/05/14 06:21:04;;;;;;;13.95;4.85;;;;;;;;;;5027894;28;20187;-73
2021/05/14 06:23:31;;;;;;;16.50;4.75;;;;;;;;;;5023611;28;20493;-73
2021/05/14 06:25:57;;;;;;;15.52;5.28;;;;;;;;;;5022627;28;20046;-73
2021/05/14 06:28:23;;;;;;;15.13;4.55;;;;;;;;;;5017830;28;20041;-73
2021/05/14 06:30:50;;;;;;;16.15;5.00;;;;;;;;;;5020970;28;20048;-73
2021/05/14 06:33:16;;;;;;;19.75;5.70;;;;;;;;;;5020950;28;20049;-73
2021/05/14 06:35:45;;;;;;;13.77;4.78;;;;;;;;;;5020943;28;20489;-73
2021/05/14 06:38:11;;;;;;;15.60;4.72;;;;;;;;;;5021431;28;20124;-74
2021/05/14 06:40:38;;;;;;;14.52;4.28;;;;;;;;;;5025789;28;20093;-73
2021/05/14 06:43:05;;;;;;;16.38;4.95;;;;;;;;;;5025954;28;20526;-73
2021/05/14 06:45:31;;;;;;;12.80;3.70;;;;;;;;;;5027711;28;20049;-74
2021/05/14 06:48:05;;;;;;;14.43;4.15;;;;;;;;;;5025271;28;20042;-73
2021/05/14 06:50:32;;;;;;;20.52;5.20;;;;;;;;;;5025544;28;20443;-74
2021/05/14 06:52:58;;;;;;;14.57;4.78;;;;;;;;;;5024752;28;20033;-73
2021/05/14 06:55:25;;;;;;;15.88;5.20;;;;;;;;;;5008321;28;20530;-74
2021/05/14 06:57:51;;;;;;;18.17;5.70;;;;;;;;;;5008608;28;20489;-74
2021/05/14 07:00:18;;;;;;;14.07;4.75;;;;;;;;;;5002661;28;20099;-77
2021/05/14 07:02:46;;;;;;;14.35;4.80;;;;;;;;;;5027521;28;20564;-79
2021/05/14 07:05:13;;;;;;;16.30;4.20;;;;;;;;;;5024640;28;20731;-73
2021/05/14 07:07:40;;;;;;;16.35;4.07;;;;;;;;;;5010535;28;20053;-73
2021/05/14 07:10:08;;;;;;;12.05;3.33;;;;;;;;;;5020952;28;20049;-73
2021/05/14 07:12:35;;;;;;;14.43;3.95;;;;;;;;;;5019471;28;20053;-77
2021/05/14 07:15:04;;;;;;;15.20;3.78;;;;;;;;;;5008340;28;20041;-73
2021/05/14 07:17:36;;;;;;;13.35;4.20;;;;;;;;;;5015363;28;20073;-73
2021/05/14 07:20:03;;;;;;;14.73;3.97;;;;;;;;;;5027636;28;20900;-74
2021/05/14 07:22:29;;;;;;;18.02;4.43;;;;;;;;;;5030036;28;20037;-74
2021/05/14 07:24:55;;;;;;;13.95;4.35;;;;;;;;;;5027886;28;20114;-74
2021/05/14 07:27:27;;;;;;;9.55;4.00;;;;;;;;;;5028071;28;20051;-80
2021/05/14 07:29:54;;;;;;;14.35;4.32;;;;;;;;;;5026392;28;20115;-74
2021/05/14 07:32:20;;;;;;;16.17;4.75;;;;;;;;;;5026755;28;20053;-73
2021/05/14 07:34:46;;;;;;;14.02;3.80;;;;;;;;;;5027781;28;20049;-73
2021/05/14 07:37:13;;;;;;;10.95;3.90;;;;;;;;;;5026996;28;20038;-73
2021/05/14 07:39:40;;;;;;;17.42;5.45;;;;;;;;;;5026737;28;20779;-73
2021/05/14 07:42:06;;;;;;;16.15;4.60;;;;;;;;;;5024194;28;20350;-73
2021/05/14 07:44:50;;;;;;;15.77;5.60;;;;;;;;;;5023335;28;20041;-74
2021/05/14 07:47:17;;;;;;;17.52;5.28;;;;;;;;;;5023874;28;20064;-77
2021/05/14 07:49:43;;;;;;;20.85;4.78;;;;;;;;;;4996405;28;20470;-77
2021/05/14 07:52:10;;;;;;;16.38;5.47;;;;;;;;;;5027363;28;20053;-77
2021/05/14 07:54:36;;;;;;;14.95;5.07;;;;;;;;;;5009653;28;20042;-77
2021/05/14 07:57:04;;;;;;;14.85;5.28;;;;;;;;;;5027316;28;20072;-80
2021/05/14 07:59:31;;;;;;;14.85;5.50;;;;;;;;;;5011306;28;20041;-79
2021/05/14 08:01:57;;;;;;;11.77;5.30;;;;;;;;;;5024746;28;20476;-79
2021/05/14 08:04:23;;;;;;;20.23;5.55;;;;;;;;;;5028066;28;20038;-75
2021/05/14 08:06:49;;;;;;;14.00;5.45;;;;;;;;;;5023874;28;20046;-76
2021/05/14 08:09:22;;;;;;;16.50;5.32;;;;;;;;;;5009393;28;20065;-76
2021/05/14 08:11:50;;;;;;;11.15;4.95;;;;;;;;;;5026056;28;20061;-75
2021/05/14 08:14:17;;;;;;;11.07;3.92;;;;;;;;;;5028291;28;20045;-75
2021/05/14 08:16:43;;;;;;;15.13;4.38;;;;;;;;;;5025928;28;20530;-76
2021/05/14 08:19:12;;;;;;;20.50;5.13;;;;;;;;;;5025851;28;20037;-76
2021/05/14 08:21:45;;;;;;;13.13;4.10;;;;;;;;;;5023681;28;20053;-77
2021/05/14 08:24:12;;;;;;;13.98;4.78;;;;;;;;;;5025456;28;20045;-77
2021/05/14 08:26:39;;;;;;;25.40;6.32;;;;;;;;;;5007570;28;20107;-75
2021/05/14 08:29:07;;;;;;;15.70;5.40;;;;;;;;;;5011706;28;20099;-75
2021/05/14 08:31:35;;;;;;;17.55;5.18;;;;;;;;;;5031454;28;20396;-75
2021/05/14 08:34:01;;;;;;;17.58;4.70;;;;;;;;;;5016667;28;20398;-75
2021/05/14 08:36:29;;;;;;;16.55;5.28;;;;;;;;;;5011256;28;20485;-76
2021/05/14 08:38:56;;;;;;;15.52;5.60;;;;;;;;;;5012753;28;20068;-76
2021/05/14 08:41:22;;;;;;;19.55;5.85;;;;;;;;;;5021362;28;20144;-76
2021/05/14 08:43:49;;;;;;;18.92;5.53;;;;;;;;;;5011150;28;20068;-76
2021/05/14 08:46:19;;;;;;;15.23;5.30;;;;;;;;;;5005968;28;20069;-76
2021/05/14 08:49:05;;;;;;;18.40;5.10;;;;;;;;;;5031390;28;20103;-74
2021/05/14 08:51:36;;;;;;;19.13;5.75;;;;;;;;;;5027934;28;20049;-85
2021/05/14 08:54:04;;;;;;;15.57;4.97;;;;;;;;;;5030079;28;20135;-76
2021/05/14 08:56:34;;;;;;;12.68;4.45;;;;;;;;;;5024097;28;20042;-76
2021/05/14 08:59:02;;;;;;;17.25;5.10;;;;;;;;;;5020686;28;20046;-76
2021/05/14 09:01:30;;;;;;;14.18;4.40;;;;;;;;;;5023721;28;20128;-76
2021/05/14 09:04:07;;;;;;;9.63;4.13;;;;;;;;;;5024560;28;20538;-76
2021/05/14 09:06:35;;;;;;;14.45;4.38;;;;;;;;;;4995016;28;20057;-76
2021/05/14 09:09:18;;;;;;;12.95;4.68;;;;;;;;;;5026196;28;20446;-76
2021/05/14 09:11:55;;;;;;;11.65;3.85;;;;;;;;;;5024000;28;20052;-76
2021/05/14 09:14:31;;;;;;;12.63;3.30;;;;;;;;;;5030104;28;20037;-76
2021/05/14 09:17:05;;;;;;;17.40;4.18;;;;;;;;;;5024220;28;20069;-76
2021/05/14 09:19:31;;;;;;;;;;;;;;;;;;5028930;28;20128;-76
2021/05/14 09:22:08;;;;;;;12.98;3.35;;;;;;;;;;5029137;28;19929;-76
2021/05/14 09:24:35;;;;;;;17.35;4.03;;;;;;;;;;5013291;28;20045;-76
2021/05/14 09:27:15;;;;;;;15.70;3.20;;;;;;;;;;5028219;28;20041;-76
2021/05/14 09:29:42;;;;;;;12.50;4.20;;;;;;;;;;5027028;28;20038;-76
2021/05/14 09:32:20;;;;;;;10.73;3.60;;;;;;;;;;5027068;28;20145;-76
2021/05/14 09:34:48;;;;;;;13.75;3.65;;;;;;;;;;5029145;28;20045;-76
2021/05/14 09:37:15;;;;;;;14.30;4.78;;;;;;;;;;5029191;28;20038;-76
2021/05/14 09:39:42;;;;;;;16.55;3.78;;;;;;;;;;5027481;28;20033;-76
2021/05/14 09:42:08;;;;;;;12.27;4.10;;;;;;;;;;5028607;28;20121;-76
2021/05/14 09:44:34;;;;;;;12.82;4.07;;;;;;;;;;5024754;28;20045;-76
2021/05/14 09:47:01;;;;;;;15.20;4.50;;;;;;;;;;5024414;28;20037;-76
2021/05/14 09:49:29;;;;;;;16.52;4.82;;;;;;;;;;5027606;28;20075;-76
2021/05/14 09:51:56;;;;;;;16.90;5.65;;;;;;;;;;5010542;28;20117;-76
2021/05/14 09:54:38;;;;;;;15.35;4.68;;;;;;;;;;5029313;28;20049;-76
2021/05/14 09:57:19;;;;;;;11.77;4.03;;;;;;;;;;5028571;28;20037;-76
2021/05/14 09:59:46;;;;;;;14.32;4.45;;;;;;;;;;5027188;28;20041;-76
2021/05/14 10:02:20;;;;;;;14.40;3.90;;;;;;;;;;5024384;28;20109;-76
2021/05/14 10:04:50;;;;;;;9.57;3.70;;;;;;;;;;5009633;28;20048;-77
2021/05/14 10:07:18;;;;;;;9.77;4.00;;;;;;;;;;5025452;28;20111;-76
2021/05/14 10:09:46;;;;;;;14.27;4.57;;;;;;;;;;5022984;28;20045;-76
2021/05/14 10:12:15;;;;;;;12.32;3.65;;;;;;;;;;5028914;28;20107;-76
2021/05/14 10:14:51;;;;;;;17.55;4.63;;;;;;;;;;5008610;28;20041;-76
2021/05/14 10:17:21;;;;;;;13.85;4.35;;;;;;;;;;5008161;28;20045;-76
2021/05/14 10:19:48;;;;;;;20.73;4.65;;;;;;;;;;5030150;28;20037;-76
2021/05/14 10:22:16;;;;;;;15.18;4.60;;;;;;;;;;5025616;28;20045;-74
2021/05/14 10:24:44;;;;;;;19.10;4.07;;;;;;;;;;5030242;28;20044;-77
2021/05/14 10:27:14;;;;;;;10.27;3.50;;;;;;;;;;5006997;28;20559;-76
2021/05/14 10:29:44;;;;;;;15.95;4.53;;;;;;;;;;5027109;28;20091;-75
2021/05/14 10:32:10;;;;;;;16.42;4.57;;;;;;;;;;5006531;28;20121;-76
2021/05/14 10:34:37;;;;;;;15.75;4.18;;;;;;;;;;5011035;28;20111;-76
2021/05/14 10:37:34;;;;;;;17.52;4.88;;;;;;;;;;4999316;28;20034;-77
2021/05/14 10:40:00;;;;;;;14.07;4.03;;;;;;;;;;5027221;28;20067;-77
2021/05/14 10:42:38;;;;;;;12.95;4.53;;;;;;;;;;5010769;28;20042;-77
2021/05/14 10:45:05;;;;;;;11.25;4.80;;;;;;;;;;5023271;28;20045;-76
2021/05/14 10:47:43;;;;;;;19.02;5.25;;;;;;;;;;5023865;28;20049;-77
2021/05/14 10:50:15;;;;;;;17.08;6.03;;;;;;;;;;5025336;28;20037;-77
2021/05/14 10:53:10;;;;;;;15.68;4.40;;;;;;;;;;5024483;28;20038;-76
2021/05/14 10:55:39;;;;;;;14.52;4.88;;;;;;;;;;5019593;28;20090;-76
2021/05/14 10:58:05;;;;;;;11.82;4.57;;;;;;;;;;5013091;28;20111;-76
2021/05/14 11:00:35;;;;;;;14.57;4.93;;;;;;;;;;5003694;28;20117;-75
2021/05/14 11:03:11;;;;;;;16.25;4.65;;;;;;;;;;5018743;28;20049;-73
2021/05/14 11:05:39;;;;;;;9.50;3.65;;;;;;;;;;5023251;28;20053;-76
2021/05/14 11:08:05;;;;;;;12.23;3.50;;;;;;;;;;5008128;28;20440;-76
2021/05/14 11:10:35;;;;;;;9.50;4.03;;;;;;;;;;5025044;28;20069;-76
2021/05/14 11:13:21;;;;;;;10.95;3.67;;;;;;;;;;5028468;28;20053;-76
2021/05/14 11:15:50;;;;;;;14.10;4.15;;;;;;;;;;5023615;28;20050;-76
2021/05/14 11:18:17;;;;;;;13.80;4.60;;;;;;;;;;5006330;28;20501;-76
2021/05/14 11:20:44;;;;;;;15.18;4.57;;;;;;;;;;5000208;28;20074;-76
2021/05/14 11:23:29;;;;;;;13.23;4.22;;;;;;;;;;5009959;28;20068;-76
2021/05/14 11:25:56;;;;;;;11.82;5.50;;;;;;;;;;5026701;28;20037;-76
2021/05/14 11:28:43;;;;;;;16.58;4.75;;;;;;;;;;5027896;28;20133;-76
2021/05/14 11:31:14;;;;;;;11.13;3.95;;;;;;;;;;5027851;28;20562;-76
2021/05/14 11:33:44;;;;;;;12.30;3.83;;;;;;;;;;5025269;28;20171;-76
2021/05/14 11:36:12;;;;;;;14.02;4.75;;;;;;;;;;5025979;28;20045;-76
2021/05/14 11:38:43;;;;;;;13.25;5.03;;;;;;;;;;5025825;28;20041;-76
2021/05/14 11:41:15;;;;;;;13.65;4.70;;;;;;;;;;5004092;28;20092;-76
2021/05/14 11:43:51;;;;;;;13.32;4.55;;;;;;;;;;5026381;28;20081;-76
2021/05/14 11:46:37;;;;;;;9.73;4.47;;;;;;;;;;5009244;28;20473;-76
2021/05/14 11:49:16;;;;;;;14.38;4.20;;;;;;;;;;5026605;28;20465;-76
2021/05/14 11:51:46;;;;;;;15.18;5.20;;;;;;;;;;5027848;28;20064;-76
2021/05/14 11:54:13;;;;;;;23.33;6.35;;;;;;;;;;5027350;28;20052;-76
2021/05/14 11:56:40;;;;;;;17.33;5.03;;;;;;;;;;5030561;28;20078;-76
2021/05/14 11:59:06;;;;;;;16.27;6.22;;;;;;;;;;5029300;28;20515;-76
2021/05/14 12:01:38;;;;;;;20.80;6.30;;;;;;;;;;5026099;28;20062;-74
2021/05/14 12:04:05;;;;;;;16.63;6.45;;;;;;;;;;5032224;28;20057;-74
2021/05/14 12:06:31;;;;;;;15.52;5.25;;;;;;;;;;5029299;28;20072;-75
2021/05/14 12:08:57;;;;;;;12.10;4.68;;;;;;;;;;5027301;28;20207;-75
2021/05/14 12:11:24;;;;;;;10.27;5.50;;;;;;;;;;5028432;28;20388;-75
2021/05/14 12:13:50;;;;;;;14.43;6.32;;;;;;;;;;5029091;28;20120;-75
2021/05/14 12:16:18;;;;;;;11.93;5.75;;;;;;;;;;5031186;28;20129;-75
2021/05/14 12:18:49;;;;;;;12.77;5.72;;;;;;;;;;5027231;28;20099;-74
2021/05/14 12:21:23;;;;;;;14.55;6.47;;;;;;;;;;5028525;28;20045;-74
2021/05/14 12:23:50;;;;;;;13.18;5.50;;;;;;;;;;5010295;28;20081;-74
2021/05/14 12:26:16;;;;;;;21.42;7.30;;;;;;;;;;5013038;28;20051;-74
2021/05/14 12:28:46;;;;;;;15.88;6.35;;;;;;;;;;5009938;28;20042;-74
2021/05/14 12:31:14;;;;;;;17.02;7.63;;;;;;;;;;5030228;28;20046;-74
2021/05/14 12:33:50;;;;;;;19.80;7.70;;;;;;;;;;5030912;28;20103;-74
2021/05/14 12:36:24;;;;;;;16.00;6.22;;;;;;;;;;5029804;28;20373;-74
2021/05/14 12:38:50;;;;;;;18.27;7.60;;;;;;;;;;5028869;28;20053;-74
2021/05/14 12:41:19;;;;;;;15.73;6.22;;;;;;;;;;5029705;28;20475;-74
2021/05/14 12:43:46;;;;;;;18.73;6.63;;;;;;;;;;5010596;28;20061;-73
2021/05/14 12:46:12;;;;;;;13.77;5.78;;;;;;;;;;5027953;28;20084;-73
2021/05/14 12:48:42;;;;;;;10.77;5.55;;;;;;;;;;5013730;28;20037;-74
2021/05/14 12:51:08;;;;;;;14.85;6.00;;;;;;;;;;5029425;28;20033;-74
2021/05/14 12:53:34;;;;;;;12.88;5.90;;;;;;;;;;5030625;28;20047;-74
2021/05/14 12:56:01;;;;;;;17.48;6.82;;;;;;;;;;5029680;28;20041;-74
2021/05/14 12:58:27;;;;;;;18.05;6.88;;;;;;;;;;5011451;28;20052;-74
2021/05/14 13:00:55;;;;;;;17.52;6.53;;;;;;;;;;5029341;28;20059;-73
2021/05/14 13:03:27;;;;;;;28.13;6.15;;;;;;;;;;5028597;28;20064;-73
2021/05/14 13:05:54;;;;;;;15.17;6.43;;;;;;;;;;5027872;28;20091;-74
2021/05/14 13:08:22;;;;;;;14.02;5.88;;;;;;;;;;5027128;28;20379;-73
2021/05/14 13:11:01;;;;;;;13.43;6.25;;;;;;;;;;5029123;28;20529;-73
2021/05/14 13:13:27;;;;;;;12.35;5.88;;;;;;;;;;5031048;28;20034;-74
2021/05/14 13:15:55;;;;;;;14.63;7.53;;;;;;;;;;5027931;28;20124;-74
2021/05/14 13:18:23;;;;;;;19.33;5.75;;;;;;;;;;5028298;28;20179;-74
2021/05/14 13:20:50;;;;;;;11.70;6.00;;;;;;;;;;5029477;28;20447;-75
2021/05/14 13:23:17;;;;;;;11.27;5.82;;;;;;;;;;5029751;28;20044;-72
2021/05/14 13:25:43;;;;;;;12.68;6.68;;;;;;;;;;5028178;28;20045;-74
2021/05/14 13:28:09;;;;;;;10.20;5.55;;;;;;;;;;5028047;28;20033;-74
2021/05/14 13:30:36;;;;;;;16.75;6.97;;;;;;;;;;5029535;28;20041;-74
2021/05/14 13:33:02;;;;;;;20.52;7.10;;;;;;;;;;5000490;28;20049;-74
2021/05/14 13:35:28;;;;;;;17.33;6.72;;;;;;;;;;5028089;28;20100;-75
2021/05/14 13:37:55;;;;;;;13.98;6.15;;;;;;;;;;5027100;28;20041;-74
2021/05/14 13:40:21;;;;;;;15.30;5.30;;;;;;;;;;5027225;28;20064;-74
2021/05/14 13:42:47;;;;;;;10.13;4.75;;;;;;;;;;5026532;28;20041;-74
2021/05/14 13:45:14;;;;;;;16.17;6.10;;;;;;;;;;5026155;28;20354;-74
2021/05/14 13:47:40;;;;;;;11.65;5.65;;;;;;;;;;5029757;28;20048;-74
2021/05/14 13:50:07;;;;;;;12.77;6.28;;;;;;;;;;5027107;28;20044;-74
2021/05/14 13:52:33;;;;;;;11.38;5.55;;;;;;;;;;5011625;28;20053;-73
2021/05/14 13:54:59;;;;;;;9.85;5.53;;;;;;;;;;5026034;28;20050;-73
2021/05/14 13:57:25;;;;;;;10.43;5.63;;;;;;;;;;5029351;28;20049;-73
2021/05/14 13:59:51;;;;;;;13.63;6.78;;;;;;;;;;5027182;28;20045;-73
2021/05/14 14:02:18;;;;;;;13.43;6.13;;;;;;;;;;5029381;28;20056;-73
2021/05/14 14:04:44;;;;;;;13.80;6.35;;;;;;;;;;5027989;28;20041;-74
2021/05/14 14:07:10;;;;;;;10.80;5.80;;;;;;;;;;5028425;28;20104;-74
2021/05/14 14:09:37;;;;;;;9.73;5.50;;;;;;;;;;5026661;28;20049;-73
2021/05/14 14:12:05;;;;;;;13.63;6.28;;;;;;;;;;5010746;28;20072;-74
2021/05/14 14:14:32;;;;;;;15.07;6.57;;;;;;;;;;5027161;28;20033;-73
2021/05/14 14:16:58;;;;;;;15.02;6.53;;;;;;;;;;5025440;28;20092;-73
2021/05/14 14:19:25;;;;;;;12.23;7.18;;;;;;;;;;5028975;28;20564;-74
2021/05/14 14:21:52;;;;;;;16.05;6.93;;;;;;;;;;5024274;28;20040;-74
2021/05/14 14:24:18;;;;;;;14.52;5.80;;;;;;;;;;5027135;28;20045;-74
2021/05/14 14:26:44;;;;;;;12.23;5.65;;;;;;;;;;5028347;28;20045;-73
2021/05/14 14:29:11;;;;;;;16.50;5.85;;;;;;;;;;5009262;28;20100;-74
2021/05/14 14:31:38;;;;;;;14.15;6.63;;;;;;;;;;5027246;28;20041;-74
2021/05/14 14:34:04;;;;;;;15.80;7.40;;;;;;;;;;5027162;28;20041;-73
2021/05/14 14:36:30;;;;;;;15.70;7.53;;;;;;;;;;5027507;28;20440;-74
2021/05/14 14:38:57;;;;;;;15.55;7.13;;;;;;;;;;5026177;28;20102;-73